createdAt,value
2018-12-06T00:00:37.748Z,101983.28
2018-12-06T00:03:05.416Z,101985.52
2018-12-06T00:05:33.008Z,101983.95
2018-12-06T00:08:12.616Z,101973.41
2018-12-06T00:10:40.285Z,101969.16
2018-12-06T00:13:07.941Z,101966.59
2018-12-06T00:15:35.537Z,101967.59
2018-12-06T00:18:03.875Z,101965.53
2018-12-06T00:20:31.491Z,101962.05
2018-12-06T00:22:59.072Z,101966.89
2018-12-06T00:25:26.681Z,101953.19
2018-12-06T00:27:55.800Z,101951.91
2018-12-06T00:30:32.124Z,101947.77
2018-12-06T00:32:59.792Z,101941.77
2018-12-06T00:35:27.457Z,101943.05
2018-12-06T00:37:55.116Z,101945.61
2018-12-06T00:40:22.789Z,101939.27
2018-12-06T00:42:50.445Z,101936.31
2018-12-06T00:45:18.104Z,101926.05
2018-12-06T00:47:45.777Z,101918.88
2018-12-06T00:50:13.433Z,101915.42
2018-12-06T00:52:41.094Z,101912.46
2018-12-06T00:55:08.749Z,101899.13
2018-12-06T00:57:36.412Z,101899.93
2018-12-06T01:00:06.506Z,101900.33
2018-12-06T01:02:34.208Z,101891.84
2018-12-06T01:05:01.875Z,101881.58
2018-12-06T01:07:29.533Z,101879.02
2018-12-06T01:09:57.192Z,101873.41
2018-12-06T01:12:24.787Z,101871.32
2018-12-06T01:14:52.624Z,101878.61
2018-12-06T01:17:20.285Z,101870.92
2018-12-06T01:19:47.953Z,101871.83
2018-12-06T01:22:15.608Z,101864.51
2018-12-06T01:24:43.264Z,101856.05
2018-12-06T01:27:10.941Z,101847.95
2018-12-06T01:29:38.590Z,101842.42
2018-12-06T01:32:06.250Z,101837.28
2018-12-06T01:34:33.920Z,101826.95
2018-12-06T01:37:01.529Z,101842.12
2018-12-06T01:39:29.209Z,101835.30
2018-12-06T01:41:56.913Z,101840.95
2018-12-06T01:44:24.572Z,101829.87
2018-12-06T01:46:52.236Z,101829.98
2018-12-06T01:49:19.908Z,101824.94
2018-12-06T01:51:47.572Z,101818.12
2018-12-06T01:54:15.157Z,101810.42
2018-12-06T01:56:42.779Z,101816.06
2018-12-06T01:59:10.439Z,101807.56
2018-12-06T02:01:38.045Z,101809.35
2018-12-06T02:04:05.676Z,101804.22
2018-12-06T02:06:33.279Z,101801.26
2018-12-06T02:09:00.895Z,101805.98
2018-12-06T02:11:28.556Z,101797.88
2018-12-06T02:13:56.220Z,101798.28
2018-12-06T02:16:23.880Z,101789.72
2018-12-06T02:18:51.616Z,101785.69
2018-12-06T02:21:19.207Z,101789.43
2018-12-06T02:23:46.872Z,101790.61
2018-12-06T02:26:14.527Z,101782.84
2018-12-06T02:28:42.201Z,101782.26
2018-12-06T02:31:09.858Z,101771.89
2018-12-06T02:33:37.486Z,101780.39
2018-12-06T02:36:05.075Z,101775.67
2018-12-06T02:38:32.739Z,101770.44
2018-12-06T02:41:00.408Z,101758.90
2018-12-06T02:43:28.011Z,101758.09
2018-12-06T02:45:55.760Z,101761.94
2018-12-06T02:48:23.402Z,101748.23
2018-12-06T02:50:51.055Z,101744.39
2018-12-06T02:53:18.663Z,101734.06
2018-12-06T02:55:46.284Z,101736.70
2018-12-06T02:58:13.944Z,101721.72
2018-12-06T03:00:41.607Z,101723.58
2018-12-06T03:03:09.355Z,101719.73
2018-12-06T03:05:37.043Z,101713.90
2018-12-06T03:08:04.805Z,101712.72
2018-12-06T03:10:32.387Z,101713.30
2018-12-06T03:13:00.021Z,101712.02
2018-12-06T03:15:27.639Z,101700.14
2018-12-06T03:17:55.347Z,101692.08
2018-12-06T03:20:23.012Z,101684.05
2018-12-06T03:22:50.620Z,101682.47
2018-12-06T03:25:18.241Z,101677.44
2018-12-06T03:27:45.899Z,101677.13
2018-12-06T03:30:13.561Z,101678.42
2018-12-06T03:32:41.533Z,101679.40
2018-12-06T03:35:09.182Z,101670.08
2018-12-06T03:37:36.851Z,101666.74
2018-12-06T03:40:05.855Z,101656.95
2018-12-06T03:42:33.516Z,101654.09
2018-12-06T03:45:01.180Z,101642.55
2018-12-06T03:47:28.762Z,101639.58
2018-12-06T03:49:56.480Z,101631.98
2018-12-06T03:52:24.161Z,101630.70
2018-12-06T03:54:51.767Z,101632.95
2018-12-06T03:57:19.393Z,101629.58
2018-12-06T03:59:47.053Z,101631.84
2018-12-06T04:02:14.717Z,101631.44
2018-12-06T04:04:42.372Z,101627.75
2018-12-06T04:07:10.041Z,101623.03
2018-12-06T04:09:37.700Z,101620.16
2018-12-06T04:12:05.369Z,101622.72
2018-12-06T04:14:32.988Z,101616.87
2018-12-06T04:17:00.587Z,101619.85
2018-12-06T04:19:28.252Z,101622.08
2018-12-06T04:21:55.915Z,101620.42
2018-12-06T04:24:23.589Z,101617.35
2018-12-06T04:26:51.248Z,101615.29
2018-12-06T04:29:18.842Z,101616.16
2018-12-06T04:31:46.457Z,101615.36
2018-12-06T04:34:14.057Z,101613.30
2018-12-06T04:36:41.793Z,101615.45
2018-12-06T04:39:09.390Z,101621.97
2018-12-06T04:41:37.051Z,101622.03
2018-12-06T04:44:04.686Z,101619.97
2018-12-06T04:46:32.357Z,101623.89
2018-12-06T04:49:00.012Z,101619.63
2018-12-06T04:51:27.668Z,101616.28
2018-12-06T04:53:55.333Z,101607.78
2018-12-06T04:56:23.003Z,101601.87
2018-12-06T04:58:50.657Z,101596.63
2018-12-06T05:01:18.322Z,101586.47
2018-12-06T05:03:45.989Z,101577.48
2018-12-06T05:06:13.687Z,101568.09
2018-12-06T05:08:41.313Z,101567.69
2018-12-06T05:11:08.985Z,101562.66
2018-12-06T05:13:36.642Z,101567.78
2018-12-06T05:16:04.405Z,101575.48
2018-12-06T05:18:31.997Z,101583.75
2018-12-06T05:20:59.629Z,101582.53
2018-12-06T05:23:38.662Z,101578.28
2018-12-06T05:26:06.425Z,101580.06
2018-12-06T05:28:34.085Z,101590.39
2018-12-06T05:31:01.745Z,101582.79
2018-12-06T05:33:29.405Z,101574.78
2018-12-06T05:35:57.078Z,101568.36
2018-12-06T05:38:24.733Z,101564.20
2018-12-06T05:40:52.401Z,101560.82
2018-12-06T05:43:20.069Z,101568.21
2018-12-06T05:45:47.720Z,101562.67
2018-12-06T05:48:15.575Z,101559.80
2018-12-06T05:50:43.220Z,101550.40
2018-12-06T05:53:10.913Z,101543.67
2018-12-06T05:55:38.581Z,101536.06
2018-12-06T05:58:06.352Z,101525.29
2018-12-06T06:00:34.009Z,101523.54
2018-12-06T06:03:02.297Z,101517.59
2018-12-06T06:05:29.958Z,101512.86
2018-12-06T06:07:57.596Z,101518.41
2018-12-06T06:10:25.185Z,101519.75
2018-12-06T06:12:52.814Z,101521.03
2018-12-06T06:15:20.401Z,101518.09
2018-12-06T06:17:48.053Z,101511.58
2018-12-06T06:20:15.820Z,101509.98
2018-12-06T06:22:43.572Z,101499.30
2018-12-06T06:25:11.249Z,101498.11
2018-12-06T06:27:38.914Z,101494.27
2018-12-06T06:30:07.093Z,101499.05
2018-12-06T06:32:34.753Z,101488.47
2018-12-06T06:35:02.424Z,101494.48
2018-12-06T06:37:30.072Z,101507.00
2018-12-06T06:39:57.737Z,101506.28
2018-12-06T06:42:25.912Z,101512.79
2018-12-06T06:44:53.527Z,101510.78
2018-12-06T06:47:21.145Z,101514.73
2018-12-06T06:49:48.761Z,101516.95
2018-12-06T06:52:16.342Z,101506.36
2018-12-06T06:54:43.957Z,101499.53
2018-12-06T06:57:11.600Z,101500.81
2018-12-06T06:59:39.225Z,101499.06
2018-12-06T07:02:06.909Z,101503.48
2018-12-06T07:04:34.568Z,101498.34
2018-12-06T07:07:02.324Z,101487.34
2018-12-06T07:09:30.000Z,101492.57
2018-12-06T07:11:57.668Z,101498.59
2018-12-06T07:14:25.533Z,101510.20
2018-12-06T07:16:53.165Z,101503.06
2018-12-06T07:19:20.757Z,101507.00
2018-12-06T07:21:48.369Z,101502.11
2018-12-06T07:24:15.988Z,101497.63
2018-12-06T07:26:43.722Z,101498.55
2018-12-06T07:29:11.410Z,101499.84
2018-12-06T07:31:39.064Z,101505.70
2018-12-06T07:34:06.697Z,101526.03
2018-12-06T07:36:34.305Z,101540.16
2018-12-06T07:39:01.961Z,101543.61
2018-12-06T07:41:29.669Z,101538.06
2018-12-06T07:43:57.285Z,101535.17
2018-12-06T07:46:24.937Z,101540.41
2018-12-06T07:48:52.550Z,101545.61
2018-12-06T07:51:20.265Z,101558.14
2018-12-06T07:53:47.932Z,101562.55
2018-12-06T07:56:15.597Z,101570.41
2018-12-06T07:58:43.256Z,101572.26
2018-12-06T08:01:10.866Z,101572.81
2018-12-06T08:03:38.452Z,101565.67
2018-12-06T08:06:06.114Z,101533.00
2018-12-06T08:08:33.706Z,101556.91
2018-12-06T08:11:01.361Z,101553.93
2018-12-06T08:13:29.024Z,101537.89
2018-12-06T08:15:56.697Z,101550.58
2018-12-06T08:18:24.443Z,101561.83
2018-12-06T08:20:52.121Z,101559.25
2018-12-06T08:23:20.198Z,101559.88
2018-12-06T08:25:47.856Z,101558.58
2018-12-06T08:28:15.517Z,101557.45
2018-12-06T08:30:43.181Z,101551.58
2018-12-06T08:33:10.841Z,101552.13
2018-12-06T08:35:38.512Z,101550.53
2018-12-06T08:38:06.168Z,101551.81
2018-12-06T08:40:33.797Z,101544.92
2018-12-06T08:43:01.505Z,101557.92
2018-12-06T08:45:29.165Z,101549.24
2018-12-06T08:47:56.926Z,101557.19
2018-12-06T08:50:24.589Z,101562.33
2018-12-06T08:52:52.249Z,101559.36
2018-12-06T08:55:19.914Z,101557.14
2018-12-06T08:57:47.573Z,101564.34
2018-12-06T09:00:15.241Z,101571.92
2018-12-06T09:02:42.897Z,101573.52
2018-12-06T09:05:10.669Z,101576.00
2018-12-06T09:07:38.256Z,101568.70
2018-12-06T09:10:06.608Z,101565.98
2018-12-06T09:12:34.193Z,101572.00
2018-12-06T09:15:01.917Z,101563.81
2018-12-06T09:17:29.599Z,101569.02
2018-12-06T09:19:57.261Z,101568.64
2018-12-06T09:22:24.929Z,101562.59
2018-12-06T09:24:52.671Z,101558.03
2018-12-06T09:27:20.348Z,101559.45
2018-12-06T09:29:47.957Z,101556.02
2018-12-06T09:32:15.551Z,101552.16
2018-12-06T09:34:43.166Z,101545.67
2018-12-06T09:37:10.766Z,101539.25
2018-12-06T09:39:38.462Z,101533.84
2018-12-06T09:42:06.121Z,101526.59
2018-12-06T09:44:33.792Z,101519.44
2018-12-06T09:47:01.449Z,101510.53
2018-12-06T09:49:29.114Z,101507.14
2018-12-06T09:51:56.705Z,101507.14
2018-12-06T09:54:24.328Z,101512.45
2018-12-06T09:56:52.000Z,101505.53
2018-12-06T09:59:19.661Z,101493.00
2018-12-06T10:01:47.410Z,101480.87
2018-12-06T10:04:15.084Z,101479.35
2018-12-06T10:06:42.745Z,101470.59
2018-12-06T10:09:10.413Z,101478.06
2018-12-06T10:11:38.077Z,101482.02
2018-12-06T10:14:05.669Z,101480.31
2018-12-06T10:16:33.301Z,101479.91
2018-12-06T10:19:00.961Z,101479.99
2018-12-06T10:21:28.694Z,101489.46
2018-12-06T10:23:56.394Z,101484.41
2018-12-06T10:26:24.053Z,101484.14
2018-12-06T10:28:51.804Z,101472.98
2018-12-06T10:31:19.481Z,101472.30
2018-12-06T10:33:47.140Z,101475.42
2018-12-06T10:36:14.813Z,101466.91
2018-12-06T10:38:42.469Z,101463.11
2018-12-06T10:41:10.133Z,101459.34
2018-12-06T10:43:37.798Z,101456.44
2018-12-06T10:46:05.458Z,101447.36
2018-12-06T10:48:33.048Z,101445.74
2018-12-06T10:51:12.666Z,101442.76
2018-12-06T10:53:40.323Z,101436.33
2018-12-06T10:56:07.989Z,101436.60
2018-12-06T10:58:35.653Z,101433.53
2018-12-06T11:01:08.029Z,101439.59
2018-12-06T11:03:37.566Z,101427.11
2018-12-06T11:06:05.193Z,101427.52
2018-12-06T11:08:32.848Z,101430.09
2018-12-06T11:11:00.522Z,101428.39
2018-12-06T11:13:28.181Z,101426.73
2018-12-06T11:15:55.845Z,101423.80
2018-12-06T11:18:23.509Z,101416.58
2018-12-06T11:20:51.168Z,101422.19
2018-12-06T11:23:18.788Z,101420.11
2018-12-06T11:25:46.397Z,101413.73
2018-12-06T11:28:14.054Z,101414.28
2018-12-06T11:30:41.643Z,101408.39
2018-12-06T11:33:09.278Z,101408.06
2018-12-06T11:35:36.940Z,101404.75
2018-12-06T11:38:04.609Z,101399.28
2018-12-06T11:40:32.269Z,101392.19
2018-12-06T11:42:59.928Z,101383.45
2018-12-06T11:45:27.597Z,101373.70
2018-12-06T11:47:56.069Z,101373.59
2018-12-06T11:50:23.845Z,101355.42
2018-12-06T11:52:51.504Z,101346.42
2018-12-06T11:55:19.269Z,101337.28
2018-12-06T11:57:47.038Z,101336.20
2018-12-06T12:00:14.693Z,101338.15
2018-12-06T12:02:42.306Z,101337.52
2018-12-06T12:05:10.026Z,101346.23
2018-12-06T12:07:37.637Z,101350.59
2018-12-06T12:10:06.174Z,101351.59
2018-12-06T12:12:33.829Z,101363.30
2018-12-06T12:15:01.464Z,101339.33
2018-12-06T12:17:29.156Z,101334.30
2018-12-06T12:19:56.826Z,101315.94
2018-12-06T12:22:24.486Z,101306.50
2018-12-06T12:24:52.145Z,101295.38
2018-12-06T12:27:19.809Z,101295.78
2018-12-06T12:29:47.558Z,101285.03
2018-12-06T12:32:15.237Z,101271.66
2018-12-06T12:34:42.850Z,101267.80
2018-12-06T12:37:10.461Z,101269.95
2018-12-06T12:39:38.121Z,101269.95
2018-12-06T12:42:06.626Z,101267.87
2018-12-06T12:44:34.241Z,101255.78
2018-12-06T12:47:01.929Z,101260.48
2018-12-06T12:49:29.532Z,101260.48
2018-12-06T12:51:57.157Z,101259.66
2018-12-06T12:54:24.774Z,101258.85
2018-12-06T12:56:52.358Z,101268.28
2018-12-06T12:59:20.041Z,101275.18
2018-12-06T13:01:47.705Z,101273.89
2018-12-06T13:04:15.369Z,101287.64
2018-12-06T13:06:43.029Z,101296.25
2018-12-06T13:09:10.701Z,101292.45
2018-12-06T13:11:38.328Z,101301.89
2018-12-06T13:14:05.943Z,101308.25
2018-12-06T13:16:33.579Z,101318.63
2018-12-06T13:19:01.327Z,101329.81
2018-12-06T13:21:29.195Z,101322.91
2018-12-06T13:23:56.880Z,101317.34
2018-12-06T13:26:24.641Z,101320.72
2018-12-06T13:28:52.232Z,101321.08
2018-12-06T13:31:19.967Z,101316.80
2018-12-06T13:33:47.601Z,101318.02
2018-12-06T13:36:15.289Z,101314.57
2018-12-06T13:38:43.039Z,101316.73
2018-12-06T13:41:10.722Z,101293.35
2018-12-06T13:43:38.364Z,101296.12
2018-12-06T13:46:06.736Z,101301.35
2018-12-06T13:48:34.630Z,101311.23
2018-12-06T13:51:02.294Z,101324.58
2018-12-06T13:53:29.953Z,101319.42
2018-12-06T13:55:57.576Z,101316.85
2018-12-06T13:58:25.470Z,101309.95
2018-12-06T14:00:53.423Z,101302.64
2018-12-06T14:03:21.426Z,101297.91
2018-12-06T14:05:49.085Z,101290.63
2018-12-06T14:08:16.754Z,101299.23
2018-12-06T14:10:44.519Z,101292.75
2018-12-06T14:13:12.181Z,101293.63
2018-12-06T14:15:39.842Z,101290.56
2018-12-06T14:18:07.437Z,101279.88
2018-12-06T14:20:35.053Z,101273.89
2018-12-06T14:23:02.674Z,101279.50
2018-12-06T14:25:30.284Z,101287.72
2018-12-06T14:27:57.955Z,101300.64
2018-12-06T14:30:26.123Z,101300.64
2018-12-06T14:32:53.743Z,101300.30
2018-12-06T14:35:21.436Z,101319.62
2018-12-06T14:37:49.114Z,101325.19
2018-12-06T14:40:16.778Z,101332.09
2018-12-06T14:42:44.440Z,101329.05
2018-12-06T14:45:12.104Z,101307.23
2018-12-06T14:47:39.766Z,101304.70
2018-12-06T14:50:07.839Z,101310.80
2018-12-06T14:52:35.501Z,101313.45
2018-12-06T14:55:03.174Z,101310.55
2018-12-06T14:57:30.825Z,101316.16
2018-12-06T14:59:58.489Z,101324.34
2018-12-06T15:02:26.253Z,101323.47
2018-12-06T15:04:53.917Z,101317.90
2018-12-06T15:07:21.538Z,101319.60
2018-12-06T15:09:49.240Z,101316.57
2018-12-06T15:12:16.904Z,101311.83
2018-12-06T15:14:44.569Z,101301.56
2018-12-06T15:17:12.338Z,101296.41
2018-12-06T15:19:39.996Z,101296.00
2018-12-06T15:22:07.660Z,101292.13
2018-12-06T15:24:35.296Z,101290.31
2018-12-06T15:27:02.933Z,101290.27
2018-12-06T15:29:30.554Z,101277.23
2018-12-06T15:31:58.217Z,101268.19
2018-12-06T15:34:25.849Z,101276.25
2018-12-06T15:36:53.538Z,101284.73
2018-12-06T15:39:21.157Z,101295.45
2018-12-06T15:41:48.858Z,101298.48
2018-12-06T15:44:16.527Z,101285.19
2018-12-06T15:46:44.272Z,101280.98
2018-12-06T15:49:12.057Z,101284.05
2018-12-06T15:51:39.723Z,101278.94
2018-12-06T15:54:07.486Z,101283.68
2018-12-06T15:56:35.253Z,101276.86
2018-12-06T15:59:03.021Z,101260.57
2018-12-06T16:01:30.677Z,101258.41
2018-12-06T16:03:58.301Z,101266.75
2018-12-06T16:06:26.000Z,101264.92
2018-12-06T16:08:53.661Z,101275.23
2018-12-06T16:11:21.330Z,101270.08
2018-12-06T16:13:48.993Z,101259.70
2018-12-06T16:16:16.648Z,101247.27
2018-12-06T16:18:44.244Z,101250.27
2018-12-06T16:21:11.877Z,101253.67
2018-12-06T16:23:39.543Z,101243.75
2018-12-06T16:26:07.207Z,101239.02
2018-12-06T16:28:34.866Z,101230.88
2018-12-06T16:31:02.489Z,101223.14
2018-12-06T16:33:30.189Z,101230.00
2018-12-06T16:35:57.813Z,101237.80
2018-12-06T16:38:25.513Z,101243.41
2018-12-06T16:40:53.176Z,101228.48
2018-12-06T16:43:20.848Z,101236.70
2018-12-06T16:45:48.506Z,101231.13
2018-12-06T16:48:16.166Z,101237.69
2018-12-06T16:50:43.834Z,101235.64
2018-12-06T16:53:11.489Z,101247.66
2018-12-06T16:55:39.159Z,101252.05
2018-12-06T16:58:06.817Z,101246.55
2018-12-06T17:00:34.587Z,101256.03
2018-12-06T17:03:02.274Z,101250.08
2018-12-06T17:05:29.973Z,101247.61
2018-12-06T17:07:57.566Z,101245.08
2018-12-06T17:10:25.189Z,101244.73
2018-12-06T17:12:52.901Z,101251.33
2018-12-06T17:15:20.562Z,101246.17
2018-12-06T17:17:48.221Z,101242.76
2018-12-06T17:20:15.885Z,101241.93
2018-12-06T17:22:43.549Z,101238.06
2018-12-06T17:25:11.191Z,101244.92
2018-12-06T17:27:38.977Z,101246.70
2018-12-06T17:30:07.408Z,101244.58
2018-12-06T17:32:35.025Z,101249.28
2018-12-06T17:35:02.694Z,101249.73
2018-12-06T17:37:30.342Z,101252.84
2018-12-06T17:39:58.012Z,101246.81
2018-12-06T17:42:25.783Z,101247.76
2018-12-06T17:44:53.432Z,101234.80
2018-12-06T17:47:21.058Z,101235.21
2018-12-06T17:49:48.762Z,101220.55
2018-12-06T17:52:16.429Z,101212.89
2018-12-06T17:54:44.194Z,101219.41
2018-12-06T17:57:11.858Z,101216.83
2018-12-06T17:59:39.514Z,101224.59
2018-12-06T18:02:07.209Z,101209.20
2018-12-06T18:04:34.844Z,101213.94
2018-12-06T18:07:02.613Z,101210.78
2018-12-06T18:09:30.276Z,101205.81
2018-12-06T18:11:57.901Z,101199.41
2018-12-06T18:14:25.592Z,101202.05
2018-12-06T18:16:53.361Z,101202.12
2018-12-06T18:19:21.021Z,101195.19
2018-12-06T18:21:48.647Z,101201.28
2018-12-06T18:24:18.771Z,101196.06
2018-12-06T18:26:46.233Z,101194.42
2018-12-06T18:29:13.925Z,101192.33
2018-12-06T18:31:41.598Z,101188.91
2018-12-06T18:34:09.256Z,101188.98
2018-12-06T18:36:36.918Z,101184.70
2018-12-06T18:39:06.934Z,101176.13
2018-12-06T18:41:34.565Z,101180.48
2018-12-06T18:44:02.233Z,101168.92
2018-12-06T18:46:29.831Z,101159.47
2018-12-06T18:48:57.486Z,101152.27
2018-12-06T18:51:25.146Z,101142.47
2018-12-06T18:53:52.805Z,101138.25
2018-12-06T18:56:20.640Z,101140.48
2018-12-06T18:58:48.342Z,101146.57
2018-12-06T19:01:15.945Z,101148.80
2018-12-06T19:03:43.561Z,101145.03
2018-12-06T19:06:11.229Z,101149.84
2018-12-06T19:08:38.885Z,101156.81
2018-12-06T19:11:06.483Z,101153.46
2018-12-06T19:13:34.211Z,101124.33
2018-12-06T19:16:01.886Z,101150.62
2018-12-06T19:18:29.545Z,101150.31
2018-12-06T19:20:57.201Z,101144.80
2018-12-06T19:23:24.826Z,101149.67
2018-12-06T19:25:52.422Z,101146.35
2018-12-06T19:28:20.089Z,101133.09
2018-12-06T19:30:47.755Z,101137.06
2018-12-06T19:33:15.412Z,101135.94
2018-12-06T19:35:43.082Z,101123.09
2018-12-06T19:38:10.742Z,101121.48
2018-12-06T19:40:38.401Z,101121.58
2018-12-06T19:43:06.069Z,101109.60
2018-12-06T19:45:33.828Z,101101.14
2018-12-06T19:48:01.494Z,101111.11
2018-12-06T19:50:29.152Z,101112.08
2018-12-06T19:52:56.818Z,101104.00
2018-12-06T19:55:24.484Z,101099.84
2018-12-06T19:57:52.149Z,101098.19
2018-12-06T20:00:19.777Z,101091.83
2018-12-06T20:02:47.469Z,101094.08
2018-12-06T20:05:15.136Z,101099.81
2018-12-06T20:07:42.800Z,101096.03
2018-12-06T20:10:10.461Z,101096.60
2018-12-06T20:12:38.122Z,101100.56
2018-12-06T20:15:05.921Z,101095.48
2018-12-06T20:17:33.550Z,101097.34
2018-12-06T20:20:01.213Z,101093.98
2018-12-06T20:22:28.811Z,101088.96
2018-12-06T20:24:56.537Z,101087.33
2018-12-06T20:27:24.205Z,101080.15
2018-12-06T20:29:51.873Z,101079.81
2018-12-06T20:32:19.525Z,101080.80
2018-12-06T20:34:47.189Z,101070.55
2018-12-06T20:37:14.849Z,101075.43
2018-12-06T20:39:42.516Z,101066.45
2018-12-06T20:42:10.177Z,101063.94
2018-12-06T20:44:37.773Z,101072.64
2018-12-06T20:47:05.501Z,101073.58
2018-12-06T20:49:33.165Z,101071.05
2018-12-06T20:52:00.788Z,101065.14
2018-12-06T20:54:28.489Z,101067.79
2018-12-06T20:56:56.106Z,101057.08
2018-12-06T20:59:23.714Z,101048.92
2018-12-06T21:01:51.421Z,101048.19
2018-12-06T21:04:19.232Z,101052.99
2018-12-06T21:06:46.981Z,101054.36
2018-12-06T21:09:14.573Z,101044.95
2018-12-06T21:11:42.193Z,101036.81
2018-12-06T21:14:09.903Z,101036.02
2018-12-06T21:16:37.525Z,101027.90
2018-12-06T21:19:05.225Z,101027.55
2018-12-06T21:21:32.897Z,101028.47
2018-12-06T21:24:00.558Z,101021.21
2018-12-06T21:26:28.213Z,101024.72
2018-12-06T21:28:55.877Z,101020.86
2018-12-06T21:31:23.538Z,101023.50
2018-12-06T21:33:51.208Z,101027.45
2018-12-06T21:36:18.861Z,101026.22
2018-12-06T21:38:46.527Z,101037.88
2018-12-06T21:41:15.824Z,101032.75
2018-12-06T21:43:43.494Z,101030.66
2018-12-06T21:46:11.157Z,101028.52
2018-12-06T21:48:38.822Z,101030.30
2018-12-06T21:51:06.476Z,101026.44
2018-12-06T21:53:34.146Z,101029.52
2018-12-06T21:56:01.801Z,101013.55
2018-12-06T21:58:29.466Z,101013.63
2018-12-06T22:00:57.128Z,101018.42
2018-12-06T22:03:24.789Z,101014.12
2018-12-06T22:05:52.453Z,101017.61
2018-12-06T22:08:20.117Z,101008.62
2018-12-06T22:10:47.781Z,101002.59
2018-12-06T22:13:15.445Z,100997.00
2018-12-06T22:15:43.105Z,100985.84
2018-12-06T22:18:10.733Z,100991.12
2018-12-06T22:20:38.436Z,100979.92
2018-12-06T22:23:06.098Z,100983.84
2018-12-06T22:25:33.756Z,100973.99
2018-12-06T22:28:01.833Z,100968.41
2018-12-06T22:30:29.497Z,100961.98
2018-12-06T22:32:57.156Z,100961.18
2018-12-06T22:35:24.777Z,100957.73
2018-12-06T22:37:53.421Z,100953.86
2018-12-06T22:40:21.065Z,100953.09
2018-12-06T22:42:48.734Z,100941.87
2018-12-06T22:45:28.357Z,100911.34
2018-12-06T22:47:55.952Z,100942.37
2018-12-06T22:50:23.610Z,100934.67
2018-12-06T22:52:51.264Z,100933.84
2018-12-06T22:55:18.921Z,100941.20
2018-12-06T22:57:46.516Z,100930.03
2018-12-06T23:00:14.685Z,100926.16
2018-12-06T23:02:42.322Z,100925.78
2018-12-06T23:05:09.981Z,100931.43
2018-12-06T23:10:11.554Z,100919.85
2018-12-06T23:12:39.228Z,100921.63
2018-12-06T23:15:07.389Z,100925.99
2018-12-06T23:17:35.053Z,100926.44
2018-12-06T23:20:03.163Z,100921.78
2018-12-06T23:22:30.793Z,100922.27
2018-12-06T23:24:58.460Z,100914.95
2018-12-06T23:27:26.117Z,100920.61
2018-12-06T23:29:53.777Z,100910.34
2018-12-06T23:32:21.443Z,100903.05
2018-12-06T23:34:49.226Z,100897.89
2018-12-06T23:37:16.877Z,100895.78
2018-12-06T23:39:44.614Z,100883.74
2018-12-06T23:42:12.277Z,100890.27
2018-12-06T23:44:39.865Z,100885.08
2018-12-06T23:47:07.521Z,100892.91
2018-12-06T23:49:35.185Z,100898.13
2018-12-06T23:52:02.845Z,100898.14
2018-12-06T23:54:30.509Z,100901.20
2018-12-06T23:56:58.176Z,100910.28
2018-12-06T23:59:25.832Z,100895.61
